createdAt,value
2018-05-06T00:01:55.594Z,15.20
2018-05-06T00:04:23.089Z,15.20
2018-05-06T00:06:50.584Z,15.20
2018-05-06T00:09:18.104Z,15.10
2018-05-06T00:11:45.600Z,15.10
2018-05-06T00:14:13.125Z,15.00
2018-05-06T00:16:40.623Z,15.00
2018-05-06T00:19:08.140Z,14.90
2018-05-06T00:21:35.636Z,14.80
2018-05-06T00:24:03.164Z,14.80
2018-05-06T00:26:30.660Z,14.80
2018-05-06T00:28:58.153Z,14.80
2018-05-06T00:31:26.447Z,14.70
2018-05-06T00:33:53.940Z,14.60
2018-05-06T00:36:22.220Z,14.60
2018-05-06T00:38:50.476Z,14.60
2018-05-06T00:41:18.761Z,14.60
2018-05-06T00:43:47.020Z,14.50
2018-05-06T00:46:14.540Z,14.50
2018-05-06T00:48:42.037Z,14.50
2018-05-06T00:51:09.532Z,14.50
2018-05-06T00:53:37.053Z,14.40
2018-05-06T00:56:04.545Z,14.30
2018-05-06T00:58:32.077Z,14.30
2018-05-06T01:00:59.579Z,14.30
2018-05-06T01:03:27.096Z,14.20
2018-05-06T01:05:54.596Z,14.20
2018-05-06T01:08:22.124Z,14.10
2018-05-06T01:10:50.381Z,14.10
2018-05-06T01:13:17.901Z,14.00
2018-05-06T01:15:45.399Z,14.00
2018-05-06T01:18:12.925Z,14.00
2018-05-06T01:20:40.424Z,13.90
2018-05-06T01:23:08.686Z,13.80
2018-05-06T01:25:36.208Z,13.80
2018-05-06T01:28:03.704Z,13.80
2018-05-06T01:30:31.224Z,13.80
2018-05-06T01:32:58.717Z,13.80
2018-05-06T01:35:26.237Z,13.80
2018-05-06T01:37:53.729Z,13.70
2018-05-06T01:40:21.248Z,13.70
2018-05-06T01:42:48.745Z,13.70
2018-05-06T01:45:16.239Z,13.70
2018-05-06T01:47:44.520Z,13.60
2018-05-06T01:50:12.790Z,13.50
2018-05-06T01:52:41.076Z,13.50
2018-05-06T01:55:08.569Z,13.50
2018-05-06T01:57:36.091Z,13.50
2018-05-06T02:00:03.592Z,13.50
2018-05-06T02:02:31.113Z,13.40
2018-05-06T02:04:58.605Z,13.40
2018-05-06T02:07:26.096Z,13.40
2018-05-06T02:09:53.616Z,13.40
2018-05-06T02:12:21.111Z,13.30
2018-05-06T02:14:48.664Z,13.30
2018-05-06T02:17:16.144Z,13.30
2018-05-06T02:19:44.424Z,13.20
2018-05-06T02:22:12.689Z,13.20
2018-05-06T02:24:40.193Z,13.20
2018-05-06T02:27:07.725Z,13.20
2018-05-06T02:29:35.984Z,13.10
2018-05-06T02:32:03.507Z,13.10
2018-05-06T02:34:31.004Z,13.10
2018-05-06T02:36:59.288Z,13.00
2018-05-06T02:39:27.555Z,13.00
2018-05-06T02:41:55.068Z,13.00
2018-05-06T02:44:22.560Z,12.90
2018-05-06T02:46:50.074Z,12.90
2018-05-06T02:49:17.588Z,12.80
2018-05-06T02:51:45.082Z,12.80
2018-05-06T02:54:12.607Z,12.70
2018-05-06T02:56:40.868Z,12.60
2018-05-06T02:59:08.380Z,12.60
2018-05-06T03:01:35.872Z,12.60
2018-05-06T03:04:03.372Z,12.50
2018-05-06T03:06:31.651Z,12.40
2018-05-06T03:08:59.908Z,12.40
2018-05-06T03:11:27.424Z,12.40
2018-05-06T03:13:54.917Z,12.30
2018-05-06T03:16:22.441Z,12.30
2018-05-06T03:18:49.938Z,12.30
2018-05-06T03:21:17.441Z,12.20
2018-05-06T03:23:44.956Z,12.20
2018-05-06T03:26:12.452Z,12.20
2018-05-06T03:28:39.972Z,12.10
2018-05-06T03:31:07.465Z,12.10
2018-05-06T03:33:34.981Z,12.10
2018-05-06T03:36:02.472Z,12.00
2018-05-06T03:38:30.731Z,11.90
2018-05-06T03:40:59.017Z,12.00
2018-05-06T03:43:27.276Z,11.90
2018-05-06T03:45:54.794Z,11.90
2018-05-06T03:48:22.293Z,11.90
2018-05-06T03:50:49.808Z,11.90
2018-05-06T03:53:17.295Z,11.90
2018-05-06T03:55:44.788Z,11.90
2018-05-06T03:58:24.923Z,11.80
2018-05-06T04:00:52.422Z,11.80
2018-05-06T04:03:19.942Z,11.80
2018-05-06T04:05:48.218Z,11.70
2018-05-06T04:08:17.340Z,11.70
2018-05-06T04:10:44.836Z,11.70
2018-05-06T04:13:12.364Z,11.70
2018-05-06T04:15:39.856Z,11.70
2018-05-06T04:18:07.372Z,11.70
2018-05-06T04:20:34.872Z,11.70
2018-05-06T04:23:02.462Z,11.60
2018-05-06T04:25:29.900Z,11.60
2018-05-06T04:27:58.155Z,11.50
2018-05-06T04:30:25.668Z,11.50
2018-05-06T04:32:53.924Z,11.40
2018-05-06T04:35:21.440Z,11.40
2018-05-06T04:37:48.932Z,11.40
2018-05-06T04:40:16.452Z,11.40
2018-05-06T04:42:43.945Z,11.40
2018-05-06T04:45:11.452Z,11.40
2018-05-06T04:47:38.946Z,11.40
2018-05-06T04:50:06.436Z,11.40
2018-05-06T04:52:33.955Z,11.40
2018-05-06T04:55:01.449Z,11.40
2018-05-06T04:57:28.972Z,11.40
2018-05-06T04:59:56.463Z,11.40
2018-05-06T05:02:23.976Z,11.40
2018-05-06T05:04:51.468Z,11.50
2018-05-06T05:07:18.984Z,11.50
2018-05-06T05:09:46.484Z,11.50
2018-05-06T05:12:13.978Z,11.60
2018-05-06T05:14:42.319Z,11.60
2018-05-06T05:17:09.812Z,11.60
2018-05-06T05:19:38.102Z,11.70
2018-05-06T05:22:06.356Z,11.70
2018-05-06T05:24:33.876Z,11.70
2018-05-06T05:27:01.368Z,11.70
2018-05-06T05:29:28.887Z,11.80
2018-05-06T05:31:56.381Z,11.80
2018-05-06T05:34:23.918Z,11.90
2018-05-06T05:36:51.413Z,11.90
2018-05-06T05:39:19.673Z,12.00
2018-05-06T05:41:47.200Z,12.00
2018-05-06T05:44:14.692Z,12.10
2018-05-06T05:46:42.202Z,12.10
2018-05-06T05:49:09.696Z,12.20
2018-05-06T05:51:37.207Z,12.20
2018-05-06T05:54:04.696Z,12.20
2018-05-06T05:56:32.192Z,12.20
2018-05-06T05:58:59.704Z,12.30
2018-05-06T06:01:27.237Z,12.40
2018-05-06T06:03:55.496Z,12.50
2018-05-06T06:06:23.753Z,12.60
2018-05-06T06:08:51.268Z,12.60
2018-05-06T06:11:18.763Z,12.60
2018-05-06T06:13:46.287Z,12.70
2018-05-06T06:16:13.788Z,12.80
2018-05-06T06:18:41.304Z,12.80
2018-05-06T06:21:08.800Z,12.90
2018-05-06T06:23:36.292Z,12.90
2018-05-06T06:26:04.573Z,13.00
2018-05-06T06:28:32.067Z,13.00
2018-05-06T06:30:59.581Z,13.10
2018-05-06T06:33:27.849Z,13.20
2018-05-06T06:35:56.128Z,13.30
2018-05-06T06:38:24.401Z,13.40
2018-05-06T06:40:52.692Z,13.50
2018-05-06T06:43:20.947Z,13.60
2018-05-06T06:45:48.459Z,13.60
2018-05-06T06:48:15.949Z,13.60
2018-05-06T06:50:43.444Z,13.70
2018-05-06T06:53:10.964Z,13.80
2018-05-06T06:55:38.460Z,13.90
2018-05-06T06:58:05.976Z,14.00
2018-05-06T07:00:33.474Z,14.10
2018-05-06T07:03:01.768Z,14.30
2018-05-06T07:05:29.264Z,14.30
2018-05-06T07:07:56.776Z,14.30
2018-05-06T07:10:24.269Z,14.40
2018-05-06T07:12:51.780Z,14.50
2018-05-06T07:15:20.040Z,14.60
2018-05-06T07:17:47.532Z,14.60
2018-05-06T07:20:15.044Z,14.70
2018-05-06T07:22:42.539Z,14.70
2018-05-06T07:25:10.057Z,14.80
2018-05-06T07:27:37.549Z,14.90
2018-05-06T07:30:05.829Z,15.00
2018-05-06T07:32:34.089Z,15.10
2018-05-06T07:35:02.384Z,15.10
2018-05-06T07:37:30.640Z,15.30
2018-05-06T07:39:58.924Z,15.30
2018-05-06T07:42:27.189Z,15.40
2018-05-06T07:44:54.684Z,15.40
2018-05-06T07:47:22.200Z,15.50
2018-05-06T07:49:49.693Z,15.50
2018-05-06T07:52:17.216Z,15.60
2018-05-06T07:54:44.722Z,15.70
2018-05-06T07:57:12.244Z,15.70
2018-05-06T07:59:39.744Z,15.80
2018-05-06T08:02:07.240Z,15.90
2018-05-06T08:04:34.757Z,16.00
2018-05-06T08:07:02.248Z,16.00
2018-05-06T08:09:29.764Z,16.10
2018-05-06T08:11:57.257Z,16.20
2018-05-06T08:14:24.770Z,16.30
2018-05-06T08:16:53.033Z,16.40
2018-05-06T08:19:21.317Z,16.50
2018-05-06T08:21:49.591Z,16.60
2018-05-06T08:24:17.868Z,16.60
2018-05-06T08:26:46.119Z,16.70
2018-05-06T08:29:13.607Z,16.70
2018-05-06T08:31:41.894Z,16.90
2018-05-06T08:34:09.392Z,16.80
2018-05-06T08:36:36.909Z,16.90
2018-05-06T08:39:05.320Z,17.00
2018-05-06T08:41:32.838Z,17.10
2018-05-06T08:44:01.096Z,17.30
2018-05-06T08:46:28.616Z,17.20
2018-05-06T08:48:56.109Z,17.30
2018-05-06T08:51:23.676Z,17.40
2018-05-06T08:53:51.139Z,17.50
2018-05-06T08:56:19.396Z,17.60
2018-05-06T08:58:46.921Z,17.60
2018-05-06T09:01:14.411Z,17.70
2018-05-06T09:03:41.924Z,17.80
2018-05-06T09:06:09.416Z,17.80
2018-05-06T09:08:36.929Z,17.90
2018-05-06T09:11:04.455Z,18.00
2018-05-06T09:13:31.959Z,18.10
2018-05-06T09:15:59.452Z,18.10
2018-05-06T09:18:26.941Z,18.20
2018-05-06T09:20:55.225Z,18.40
2018-05-06T09:23:23.479Z,18.50
2018-05-06T09:25:50.992Z,18.50
2018-05-06T09:28:18.488Z,18.60
2018-05-06T09:30:46.004Z,18.70
2018-05-06T09:33:13.501Z,18.80
2018-05-06T09:35:41.017Z,18.80
2018-05-06T09:38:08.508Z,19.00
2018-05-06T09:40:36.205Z,19.10
2018-05-06T09:43:04.460Z,19.40
2018-05-06T09:45:31.954Z,19.40
2018-05-06T09:48:00.236Z,19.80
2018-05-06T09:50:27.728Z,19.80
2018-05-06T09:52:55.242Z,20.00
2018-05-06T09:55:23.509Z,20.40
2018-05-06T09:57:51.788Z,20.70
2018-05-06T10:00:20.048Z,20.90
2018-05-06T10:02:47.564Z,20.90
2018-05-06T10:05:15.063Z,21.10
2018-05-06T10:07:42.599Z,21.40
2018-05-06T10:10:10.092Z,21.50
2018-05-06T10:12:37.583Z,21.80
2018-05-06T10:15:05.098Z,22.10
2018-05-06T10:17:33.372Z,22.70
2018-05-06T10:20:00.888Z,22.70
2018-05-06T10:22:28.382Z,22.90
2018-05-06T10:24:55.900Z,23.20
2018-05-06T10:27:23.392Z,23.60
2018-05-06T10:29:50.888Z,24.00
2018-05-06T10:32:19.167Z,24.50
2018-05-06T10:34:47.428Z,24.90
2018-05-06T10:37:14.940Z,24.80
2018-05-06T10:39:42.508Z,25.20
2018-05-06T10:42:10.728Z,25.90
2018-05-06T10:44:38.984Z,26.40
2018-05-06T10:47:06.532Z,26.30
2018-05-06T10:49:34.015Z,26.40
2018-05-06T10:52:02.299Z,27.10
2018-05-06T10:54:30.567Z,27.30
2018-05-06T10:56:58.060Z,27.30
2018-05-06T10:59:25.572Z,27.40
2018-05-06T11:01:53.056Z,27.90
2018-05-06T11:04:21.340Z,28.90
2018-05-06T11:06:49.596Z,29.50
2018-05-06T11:09:17.118Z,29.50
2018-05-06T11:11:44.611Z,29.10
2018-05-06T11:14:12.123Z,29.50
2018-05-06T11:16:39.612Z,29.50
2018-05-06T11:19:07.128Z,29.40
2018-05-06T11:21:34.619Z,30.20
2018-05-06T11:24:02.212Z,30.50
2018-05-06T11:26:30.472Z,31.70
2018-05-06T11:28:57.964Z,31.60
2018-05-06T11:31:25.476Z,32.40
2018-05-06T11:33:52.967Z,32.00
2018-05-06T11:36:21.252Z,32.70
2018-05-06T11:38:49.509Z,33.00
2018-05-06T11:41:17.024Z,33.00
2018-05-06T11:43:44.516Z,33.90
2018-05-06T11:46:12.109Z,34.90
2018-05-06T11:48:39.544Z,35.70
2018-05-06T11:51:07.062Z,37.00
2018-05-06T11:53:34.568Z,38.30
2018-05-06T11:56:02.827Z,41.10
2018-05-06T11:58:30.351Z,41.00
2018-05-06T12:00:57.851Z,41.10
2018-05-06T12:03:26.144Z,41.20
2018-05-06T12:05:54.400Z,42.30
2018-05-06T12:08:21.916Z,42.30
2018-05-06T12:10:49.412Z,43.60
2018-05-06T12:13:16.932Z,43.90
2018-05-06T12:15:44.424Z,44.50
2018-05-06T12:18:11.936Z,44.50
2018-05-06T12:20:39.427Z,45.10
2018-05-06T12:23:06.944Z,44.90
2018-05-06T12:25:34.440Z,44.90
2018-05-06T12:28:01.932Z,45.50
2018-05-06T12:30:29.448Z,46.20
2018-05-06T12:32:56.943Z,47.40
2018-05-06T12:35:24.460Z,47.50
2018-05-06T12:37:51.952Z,48.20
2018-05-06T12:40:19.568Z,48.70
2018-05-06T12:42:47.069Z,48.90
2018-05-06T12:45:14.585Z,48.00
2018-05-06T12:47:42.088Z,48.30
2018-05-06T12:50:09.604Z,48.70
2018-05-06T12:52:37.096Z,49.30
2018-05-06T12:55:04.592Z,49.00
2018-05-06T12:57:32.872Z,48.00
2018-05-06T13:00:01.132Z,48.00
2018-05-06T13:02:29.412Z,47.50
2018-05-06T13:04:57.669Z,46.40
2018-05-06T13:07:25.184Z,46.30
2018-05-06T13:09:52.677Z,46.00
2018-05-06T13:12:20.192Z,45.20
2018-05-06T13:14:47.683Z,44.50
2018-05-06T13:17:15.199Z,44.00
2018-05-06T13:19:42.692Z,44.00
2018-05-06T13:22:10.180Z,42.90
2018-05-06T13:24:37.705Z,42.30
2018-05-06T13:27:05.202Z,41.70
2018-05-06T13:29:32.720Z,39.90
2018-05-06T13:32:00.212Z,38.80
2018-05-06T13:34:27.735Z,38.20
2018-05-06T13:36:55.232Z,38.00
2018-05-06T13:39:22.751Z,37.10
2018-05-06T13:41:50.241Z,36.70
2018-05-06T13:44:17.737Z,36.30
2018-05-06T13:46:45.256Z,36.20
2018-05-06T13:49:12.748Z,35.80
2018-05-06T13:51:41.028Z,35.70
2018-05-06T13:54:09.284Z,36.10
2018-05-06T13:56:36.872Z,36.00
2018-05-06T13:59:04.369Z,36.10
2018-05-06T14:01:31.937Z,36.50
2018-05-06T14:03:59.395Z,37.10
2018-05-06T14:06:26.893Z,37.00
2018-05-06T14:08:55.176Z,34.60
2018-05-06T14:11:23.432Z,34.60
2018-05-06T14:13:51.730Z,34.80
2018-05-06T14:16:19.232Z,34.70
2018-05-06T14:18:46.748Z,34.40
2018-05-06T14:21:14.246Z,34.30
2018-05-06T14:23:41.756Z,34.30
2018-05-06T14:26:10.012Z,33.50
2018-05-06T14:28:37.509Z,33.50
2018-05-06T14:31:05.025Z,33.30
2018-05-06T14:33:32.533Z,33.10
2018-05-06T14:36:00.048Z,32.30
2018-05-06T14:38:27.539Z,32.00
2018-05-06T14:40:55.051Z,31.70
2018-05-06T14:43:22.544Z,31.20
2018-05-06T14:45:50.804Z,30.90
2018-05-06T14:48:18.316Z,30.90
2018-05-06T14:50:45.807Z,31.00
2018-05-06T14:53:13.333Z,30.90
2018-05-06T14:55:40.824Z,30.90
2018-05-06T14:58:08.337Z,30.70
2018-05-06T15:00:35.828Z,30.80
2018-05-06T15:03:03.324Z,30.80
2018-05-06T15:05:31.604Z,30.80
2018-05-06T15:07:59.865Z,30.70
2018-05-06T15:10:27.417Z,30.80
2018-05-06T15:12:54.892Z,30.60
2018-05-06T15:15:23.172Z,30.40
2018-05-06T15:17:51.436Z,30.40
2018-05-06T15:20:18.928Z,30.40
2018-05-06T15:22:46.448Z,30.50
2018-05-06T15:25:13.941Z,30.40
2018-05-06T15:27:41.451Z,30.30
2018-05-06T15:30:08.945Z,30.40
2018-05-06T15:32:37.230Z,30.50
2018-05-06T15:35:04.724Z,30.50
2018-05-06T15:37:33.004Z,30.50
2018-05-06T15:40:00.492Z,30.50
2018-05-06T15:42:28.008Z,30.40
2018-05-06T15:44:55.509Z,30.40
2018-05-06T15:47:23.000Z,30.30
2018-05-06T15:49:50.525Z,30.10
2018-05-06T15:52:18.796Z,29.80
2018-05-06T15:54:46.392Z,29.70
2018-05-06T15:57:13.820Z,29.40
2018-05-06T15:59:41.336Z,29.40
2018-05-06T16:05:13.282Z,29.30
2018-05-06T16:07:41.541Z,29.20
2018-05-06T16:10:09.056Z,29.20
2018-05-06T16:12:36.544Z,29.20
2018-05-06T16:15:04.036Z,29.20
2018-05-06T16:17:32.312Z,28.90
2018-05-06T16:20:00.568Z,28.90
2018-05-06T16:22:28.155Z,28.90
2018-05-06T16:24:55.597Z,28.90
2018-05-06T16:27:23.872Z,28.80
2018-05-06T16:29:52.123Z,28.80
2018-05-06T16:32:19.640Z,28.70
2018-05-06T16:34:47.132Z,28.70
2018-05-06T16:37:14.624Z,28.70
2018-05-06T16:39:42.904Z,28.50
2018-05-06T16:42:11.156Z,28.40
2018-05-06T16:44:38.667Z,28.30
2018-05-06T16:47:06.160Z,28.20
2018-05-06T16:49:33.681Z,28.20
2018-05-06T16:52:01.167Z,28.00
2018-05-06T16:54:28.680Z,27.70
2018-05-06T16:56:56.935Z,27.50
2018-05-06T16:59:24.429Z,27.40
2018-05-06T17:01:51.952Z,27.40
2018-05-06T17:04:19.440Z,27.20
2018-05-06T17:06:46.966Z,27.10
2018-05-06T17:09:14.459Z,27.10
2018-05-06T17:11:41.968Z,27.00
2018-05-06T17:14:10.224Z,26.80
2018-05-06T17:16:37.736Z,26.70
2018-05-06T17:19:05.991Z,26.40
2018-05-06T17:21:33.480Z,26.40
2018-05-06T17:24:01.020Z,26.50
2018-05-06T17:26:28.507Z,26.30
2018-05-06T17:28:56.020Z,26.20
2018-05-06T17:31:23.513Z,26.10
2018-05-06T17:33:51.792Z,25.80
2018-05-06T17:36:19.316Z,25.80
2018-05-06T17:38:46.836Z,25.70
2018-05-06T17:41:14.328Z,25.50
2018-05-06T17:43:41.816Z,25.30
2018-05-06T17:46:10.097Z,25.10
2018-05-06T17:48:38.358Z,25.10
2018-05-06T17:51:06.648Z,25.00
2018-05-06T17:53:34.900Z,24.90
2018-05-06T17:56:02.413Z,24.90
2018-05-06T17:58:29.912Z,24.70
2018-05-06T18:00:57.428Z,24.60
2018-05-06T18:03:24.920Z,24.50
2018-05-06T18:05:52.411Z,24.50
2018-05-06T18:08:20.708Z,24.30
2018-05-06T18:10:48.196Z,24.30
2018-05-06T18:13:15.710Z,24.20
2018-05-06T18:15:43.968Z,24.00
2018-05-06T18:18:11.483Z,24.00
2018-05-06T18:20:38.980Z,23.90
2018-05-06T18:23:06.468Z,23.80
2018-05-06T18:25:33.979Z,23.60
2018-05-06T18:28:01.473Z,23.50
2018-05-06T18:30:29.748Z,23.30
2018-05-06T18:32:58.008Z,23.10
2018-05-06T18:35:25.516Z,23.10
2018-05-06T18:37:53.005Z,22.90
2018-05-06T18:40:20.529Z,22.80
2018-05-06T18:42:48.027Z,22.70
2018-05-06T18:45:15.512Z,22.60
2018-05-06T18:47:43.792Z,22.40
2018-05-06T18:50:12.048Z,22.30
2018-05-06T18:52:39.565Z,22.30
2018-05-06T18:55:07.055Z,22.30
2018-05-06T18:57:34.571Z,22.20
2018-05-06T19:00:02.064Z,22.10
2018-05-06T19:02:29.604Z,21.90
2018-05-06T19:04:57.096Z,21.90
2018-05-06T19:07:24.588Z,21.80
2018-05-06T19:09:52.109Z,21.70
2018-05-06T19:12:19.596Z,21.60
2018-05-06T19:14:47.872Z,21.40
2018-05-06T19:17:16.127Z,21.30
2018-05-06T19:19:43.640Z,21.30
2018-05-06T19:22:11.129Z,21.20
2018-05-06T19:24:38.639Z,21.10
2018-05-06T19:27:06.132Z,21.00
2018-05-06T19:29:33.666Z,20.90
2018-05-06T19:32:01.917Z,20.80
2018-05-06T19:34:30.203Z,20.70
2018-05-06T19:36:58.464Z,20.60
2018-05-06T19:39:26.720Z,20.60
2018-05-06T19:41:55.000Z,20.50
2018-05-06T19:44:22.488Z,20.50
2018-05-06T19:46:49.985Z,20.40
2018-05-06T19:49:17.497Z,20.40
2018-05-06T19:51:45.752Z,20.20
2018-05-06T19:54:13.268Z,20.20
2018-05-06T19:56:40.763Z,20.20
2018-05-06T19:59:08.284Z,20.10
2018-05-06T20:01:35.780Z,20.10
2018-05-06T20:04:03.272Z,20.00
2018-05-06T20:06:31.553Z,19.90
2018-05-06T20:08:59.041Z,19.90
2018-05-06T20:11:26.557Z,19.90
2018-05-06T20:13:54.811Z,19.90
2018-05-06T20:16:22.320Z,19.80
2018-05-06T20:18:49.812Z,19.80
2018-05-06T20:21:17.328Z,19.70
2018-05-06T20:23:44.814Z,19.60
2018-05-06T20:26:12.300Z,19.50
2018-05-06T20:28:39.813Z,19.40
2018-05-06T20:31:07.305Z,19.30
2018-05-06T20:33:34.820Z,19.30
2018-05-06T20:36:02.316Z,19.30
2018-05-06T20:38:29.886Z,19.20
2018-05-06T20:40:57.336Z,19.10
2018-05-06T20:43:24.847Z,19.10
2018-05-06T20:45:52.339Z,19.10
2018-05-06T20:48:19.830Z,19.10
2018-05-06T20:50:47.351Z,19.10
2018-05-06T20:53:14.843Z,19.00
2018-05-06T20:55:42.356Z,19.00
2018-05-06T20:58:09.852Z,19.00
2018-05-06T21:00:37.861Z,18.90
2018-05-06T21:03:06.116Z,18.80
2018-05-06T21:05:33.628Z,18.80
2018-05-06T21:08:01.120Z,18.80
2018-05-06T21:10:28.694Z,18.70
2018-05-06T21:12:56.143Z,18.60
2018-05-06T21:15:24.404Z,18.50
2018-05-06T21:17:51.917Z,18.50
2018-05-06T21:20:19.408Z,18.50
2018-05-06T21:22:46.920Z,18.50
2018-05-06T21:25:15.176Z,18.40
2018-05-06T21:27:42.732Z,18.30
2018-05-06T21:30:11.013Z,18.20
2018-05-06T21:32:39.308Z,18.20
2018-05-06T21:35:07.579Z,18.10
2018-05-06T21:37:35.831Z,18.10
2018-05-06T21:40:03.341Z,18.10
2018-05-06T21:42:30.832Z,18.10
2018-05-06T21:44:58.350Z,18.00
2018-05-06T21:47:25.852Z,18.00
2018-05-06T21:49:53.356Z,17.90
2018-05-06T21:52:21.637Z,17.90
2018-05-06T21:54:49.127Z,17.90
2018-05-06T21:57:16.640Z,17.80
2018-05-06T21:59:44.904Z,17.80
2018-05-06T22:02:13.924Z,17.70
2018-05-06T22:04:41.416Z,17.70
2018-05-06T22:07:08.904Z,17.60
2018-05-06T22:09:36.421Z,17.60
2018-05-06T22:12:03.911Z,17.50
2018-05-06T22:14:31.428Z,17.50
2018-05-06T22:16:58.920Z,17.40
2018-05-06T22:19:26.428Z,17.40
2018-05-06T22:21:54.683Z,17.30
2018-05-06T22:24:22.206Z,17.30
2018-05-06T22:26:49.696Z,17.20
2018-05-06T22:29:17.183Z,17.20
2018-05-06T22:31:44.691Z,17.10
2018-05-06T22:34:12.266Z,17.10
2018-05-06T22:36:40.480Z,17.00
2018-05-06T22:39:07.973Z,17.00
2018-05-06T22:41:35.576Z,17.00
2018-05-06T22:44:02.995Z,16.90
2018-05-06T22:46:30.485Z,16.90
2018-05-06T22:48:57.996Z,16.90
2018-05-06T22:51:25.507Z,16.80
2018-05-06T22:53:53.786Z,16.70
2018-05-06T22:56:22.045Z,16.60
2018-05-06T22:58:49.557Z,16.60
2018-05-06T23:01:17.049Z,16.60
2018-05-06T23:03:46.057Z,16.50
2018-05-06T23:06:14.629Z,16.50
2018-05-06T23:08:42.124Z,16.40
2018-05-06T23:11:10.443Z,16.30
2018-05-06T23:13:37.917Z,16.30
2018-05-06T23:16:05.433Z,16.30
2018-05-06T23:18:32.926Z,16.20
2018-05-06T23:21:00.429Z,16.10
2018-05-06T23:23:28.720Z,16.00
2018-05-06T23:25:56.212Z,16.00
2018-05-06T23:28:23.724Z,15.90
2018-05-06T23:30:51.980Z,15.90
2018-05-06T23:33:20.264Z,15.80
2018-05-06T23:35:47.762Z,15.80
2018-05-06T23:38:15.304Z,15.80
2018-05-06T23:40:42.792Z,15.80
2018-05-06T23:43:10.280Z,15.70
2018-05-06T23:45:37.793Z,15.70
2018-05-06T23:48:05.284Z,15.70
2018-05-06T23:50:32.801Z,15.70
2018-05-06T23:53:00.292Z,15.70
2018-05-06T23:55:27.832Z,15.70
2018-05-06T23:57:55.323Z,15.60
